sensor_id;sensor_type;location;lat;lon;timestamp;pressure;altitude;pressure_sealevel;temperature;humidity
69351;BME280;57106;51.446;-2.606;2023-01-29T00:01:31;103087.35;;;8.29;64.63
69351;BME280;57106;51.446;-2.606;2023-01-29T01:26:28;103064.14;;;7.67;66.97
69351;BME280;57106;51.446;-2.606;2023-01-29T01:28:53;103057.94;;;7.73;66.97
69351;BME280;57106;51.446;-2.606;2023-01-29T01:31:15;103057.82;;;7.72;66.95
69351;BME280;57106;51.446;-2.606;2023-01-29T01:33:39;103058.17;;;7.83;66.56
69351;BME280;57106;51.446;-2.606;2023-01-29T01:36:07;103055.32;;;7.76;66.11
69351;BME280;57106;51.446;-2.606;2023-01-29T01:38:32;103055.15;;;7.74;66.28
69351;BME280;57106;51.446;-2.606;2023-01-29T01:40:55;103058.66;;;7.73;66.63
69351;BME280;57106;51.446;-2.606;2023-01-29T01:43:23;103056.76;;;7.80;66.56
69351;BME280;57106;51.446;-2.606;2023-01-29T01:45:46;103058.42;;;7.84;66.21
69351;BME280;57106;51.446;-2.606;2023-01-29T01:48:15;103053.22;;;7.99;65.90
69351;BME280;57106;51.446;-2.606;2023-01-29T01:50:43;103052.81;;;7.91;66.20
69351;BME280;57106;51.446;-2.606;2023-01-29T01:53:11;103053.27;;;7.92;65.53
69351;BME280;57106;51.446;-2.606;2023-01-29T01:55:31;103049.59;;;7.58;67.29
69351;BME280;57106;51.446;-2.606;2023-01-29T01:57:59;103046.77;;;7.56;67.26
69351;BME280;57106;51.446;-2.606;2023-01-29T02:00:25;103042.66;;;7.54;67.54
69351;BME280;57106;51.446;-2.606;2023-01-29T02:02:45;103040.68;;;7.50;67.92
69351;BME280;57106;51.446;-2.606;2023-01-29T02:05:13;103041.91;;;7.53;67.95
69351;BME280;57106;51.446;-2.606;2023-01-29T02:07:48;103041.93;;;7.55;67.89
69351;BME280;57106;51.446;-2.606;2023-01-29T02:10:09;103040.42;;;7.52;68.06
69351;BME280;57106;51.446;-2.606;2023-01-29T02:12:27;103043.41;;;7.54;68.02
69351;BME280;57106;51.446;-2.606;2023-01-29T02:14:57;103042.04;;;7.73;66.89
69351;BME280;57106;51.446;-2.606;2023-01-29T02:17:22;103040.37;;;7.56;67.55
69351;BME280;57106;51.446;-2.606;2023-01-29T02:19:48;103033.44;;;7.54;68.18
69351;BME280;57106;51.446;-2.606;2023-01-29T02:22:28;103032.95;;;7.53;67.94
69351;BME280;57106;51.446;-2.606;2023-01-29T02:24:50;103030.25;;;7.57;68.28
69351;BME280;57106;51.446;-2.606;2023-01-29T02:27:07;103029.81;;;7.56;68.23
69351;BME280;57106;51.446;-2.606;2023-01-29T02:29:33;103029.10;;;7.52;68.15
69351;BME280;57106;51.446;-2.606;2023-01-29T02:32:07;103026.84;;;7.46;68.65
69351;BME280;57106;51.446;-2.606;2023-01-29T02:34:25;103024.01;;;7.36;68.75
69351;BME280;57106;51.446;-2.606;2023-01-29T02:36:46;103018.64;;;7.64;68.26
69351;BME280;57106;51.446;-2.606;2023-01-29T02:39:15;103014.04;;;7.54;67.99
69351;BME280;57106;51.446;-2.606;2023-01-29T02:41:43;103008.26;;;7.36;68.78
69351;BME280;57106;51.446;-2.606;2023-01-29T02:44:04;103008.01;;;7.40;68.96
69351;BME280;57106;51.446;-2.606;2023-01-29T02:48:56;102997.27;;;7.43;68.91
69351;BME280;57106;51.446;-2.606;2023-01-29T02:51:20;102994.33;;;7.52;68.74
69351;BME280;57106;51.446;-2.606;2023-01-29T02:53:50;102988.97;;;7.34;69.12
69351;BME280;57106;51.446;-2.606;2023-01-29T02:56:14;102986.23;;;7.36;69.41
69351;BME280;57106;51.446;-2.606;2023-01-29T02:58:37;102990.67;;;7.11;70.03
69351;BME280;57106;51.446;-2.606;2023-01-29T03:03:32;102982.30;;;7.44;69.77
69351;BME280;57106;51.446;-2.606;2023-01-29T03:05:57;102981.86;;;7.61;69.37
69351;BME280;57106;51.446;-2.606;2023-01-29T03:08:21;102974.98;;;7.87;68.44
69351;BME280;57106;51.446;-2.606;2023-01-29T03:10:47;102974.40;;;7.81;68.46
69351;BME280;57106;51.446;-2.606;2023-01-29T03:13:13;102973.25;;;7.72;68.75
69351;BME280;57106;51.446;-2.606;2023-01-29T03:15:38;102974.10;;;7.60;69.15
69351;BME280;57106;51.446;-2.606;2023-01-29T03:18:03;102963.45;;;7.68;68.84
69351;BME280;57106;51.446;-2.606;2023-01-29T03:20:25;102959.52;;;7.69;69.09
69351;BME280;57106;51.446;-2.606;2023-01-29T03:23:00;102950.67;;;7.78;69.03
69351;BME280;57106;51.446;-2.606;2023-01-29T03:25:17;102952.80;;;7.63;69.40
69351;BME280;57106;51.446;-2.606;2023-01-29T03:27:48;102952.73;;;7.65;69.64
69351;BME280;57106;51.446;-2.606;2023-01-29T03:30:11;102951.62;;;7.66;69.54
69351;BME280;57106;51.446;-2.606;2023-01-29T03:32:31;102951.73;;;7.80;69.42
69351;BME280;57106;51.446;-2.606;2023-01-29T03:34:59;102953.02;;;7.77;69.29
69351;BME280;57106;51.446;-2.606;2023-01-29T03:37:27;102954.10;;;7.89;69.10
69351;BME280;57106;51.446;-2.606;2023-01-29T03:39:47;102956.78;;;7.82;69.57
69351;BME280;57106;51.446;-2.606;2023-01-29T03:42:19;102958.75;;;7.67;70.14
69351;BME280;57106;51.446;-2.606;2023-01-29T03:44:52;102950.79;;;7.79;69.77
69351;BME280;57106;51.446;-2.606;2023-01-29T03:47:16;102944.23;;;7.82;69.97
69351;BME280;57106;51.446;-2.606;2023-01-29T03:49:33;102945.45;;;7.79;70.11
69351;BME280;57106;51.446;-2.606;2023-01-29T03:52:07;102939.85;;;7.82;69.56
69351;BME280;57106;51.446;-2.606;2023-01-29T03:54:27;102934.09;;;7.82;70.16
69351;BME280;57106;51.446;-2.606;2023-01-29T03:56:54;102938.80;;;8.01;69.80
69351;BME280;57106;51.446;-2.606;2023-01-29T03:59:24;102938.67;;;8.08;68.95
69351;BME280;57106;51.446;-2.606;2023-01-29T04:01:40;102935.87;;;8.06;68.67
69351;BME280;57106;51.446;-2.606;2023-01-29T04:04:16;102939.89;;;8.01;69.16
69351;BME280;57106;51.446;-2.606;2023-01-29T04:06:31;102941.35;;;8.10;68.86
69351;BME280;57106;51.446;-2.606;2023-01-29T04:08:57;102943.71;;;8.14;68.88
69351;BME280;57106;51.446;-2.606;2023-01-29T04:11:24;102936.34;;;8.18;68.67
69351;BME280;57106;51.446;-2.606;2023-01-29T04:13:46;102932.39;;;8.01;68.71
69351;BME280;57106;51.446;-2.606;2023-01-29T04:16:17;102933.36;;;8.17;68.61
69351;BME280;57106;51.446;-2.606;2023-01-29T04:18:37;102932.08;;;8.16;68.75
69351;BME280;57106;51.446;-2.606;2023-01-29T04:21:05;102934.42;;;8.18;68.59
69351;BME280;57106;51.446;-2.606;2023-01-29T04:23:28;102929.17;;;8.17;68.43
69351;BME280;57106;51.446;-2.606;2023-01-29T04:26:13;102926.56;;;8.15;68.58
69351;BME280;57106;51.446;-2.606;2023-01-29T04:28:27;102921.98;;;8.13;68.92
69351;BME280;57106;51.446;-2.606;2023-01-29T04:30:55;102918.22;;;8.23;68.90
69351;BME280;57106;51.446;-2.606;2023-01-29T04:33:20;102914.45;;;8.29;68.75
69351;BME280;57106;51.446;-2.606;2023-01-29T04:35:46;102913.59;;;8.32;68.74
69351;BME280;57106;51.446;-2.606;2023-01-29T04:38:10;102910.48;;;8.27;68.79
69351;BME280;57106;51.446;-2.606;2023-01-29T04:40:32;102913.41;;;8.32;68.76
69351;BME280;57106;51.446;-2.606;2023-01-29T04:43:00;102909.77;;;8.27;69.11
69351;BME280;57106;51.446;-2.606;2023-01-29T04:45:26;102912.39;;;8.33;68.48
69351;BME280;57106;51.446;-2.606;2023-01-29T04:47:49;102909.76;;;8.39;68.19
69351;BME280;57106;51.446;-2.606;2023-01-29T05:02:24;102896.68;;;8.45;68.54
69351;BME280;57106;51.446;-2.606;2023-01-29T05:04:46;102893.79;;;8.58;68.11
69351;BME280;57106;51.446;-2.606;2023-01-29T05:07:13;102897.95;;;8.84;67.21
69351;BME280;57106;51.446;-2.606;2023-01-29T05:09:37;102890.74;;;8.79;66.93
69351;BME280;57106;51.446;-2.606;2023-01-29T05:16:58;102877.80;;;8.77;67.63
69351;BME280;57106;51.446;-2.606;2023-01-29T05:19:18;102877.82;;;8.70;67.23
69351;BME280;57106;51.446;-2.606;2023-01-29T05:21:51;102873.95;;;8.87;67.08
69351;BME280;57106;51.446;-2.606;2023-01-29T05:24:11;102873.70;;;8.75;67.35
69351;BME280;57106;51.446;-2.606;2023-01-29T05:26:38;102874.00;;;8.49;68.19
69351;BME280;57106;51.446;-2.606;2023-01-29T05:29:00;102868.46;;;8.58;68.16
69351;BME280;57106;51.446;-2.606;2023-01-29T05:31:30;102865.17;;;8.61;68.21
69351;BME280;57106;51.446;-2.606;2023-01-29T05:33:51;102869.87;;;8.63;68.31
69351;BME280;57106;51.446;-2.606;2023-01-29T05:36:15;102869.03;;;8.59;68.45
69351;BME280;57106;51.446;-2.606;2023-01-29T05:38:46;102861.55;;;8.60;68.46
69351;BME280;57106;51.446;-2.606;2023-01-29T05:41:12;102859.38;;;8.69;68.27
69351;BME280;57106;51.446;-2.606;2023-01-29T05:43:32;102857.33;;;8.62;68.39
69351;BME280;57106;51.446;-2.606;2023-01-29T05:45:58;102847.30;;;8.68;68.18
69351;BME280;57106;51.446;-2.606;2023-01-29T05:48:23;102844.13;;;8.57;68.83
69351;BME280;57106;51.446;-2.606;2023-01-29T05:50:59;102839.34;;;8.64;68.88
69351;BME280;57106;51.446;-2.606;2023-01-29T05:53:18;102835.07;;;8.67;68.96
69351;BME280;57106;51.446;-2.606;2023-01-29T05:55:39;102834.15;;;8.59;69.44
69351;BME280;57106;51.446;-2.606;2023-01-29T05:58:05;102834.23;;;8.57;69.66
69351;BME280;57106;51.446;-2.606;2023-01-29T06:00:30;102832.96;;;8.61;69.74
69351;BME280;57106;51.446;-2.606;2023-01-29T06:02:55;102831.01;;;8.54;70.27
69351;BME280;57106;51.446;-2.606;2023-01-29T06:05:23;102828.02;;;8.63;69.86
69351;BME280;57106;51.446;-2.606;2023-01-29T06:07:51;102829.74;;;8.63;70.31
69351;BME280;57106;51.446;-2.606;2023-01-29T06:10:23;102828.56;;;8.58;70.77
69351;BME280;57106;51.446;-2.606;2023-01-29T06:54:14;102778.43;;;9.18;71.24
69351;BME280;57106;51.446;-2.606;2023-01-29T07:08:31;102785.07;;;9.47;70.77
69351;BME280;57106;51.446;-2.606;2023-01-29T07:10:58;102787.16;;;9.34;71.31
69351;BME280;57106;51.446;-2.606;2023-01-29T07:13:19;102790.76;;;9.26;71.56
69351;BME280;57106;51.446;-2.606;2023-01-29T07:15:45;102792.91;;;9.21;71.97
69351;BME280;57106;51.446;-2.606;2023-01-29T07:18:17;102792.82;;;9.09;72.17
69351;BME280;57106;51.446;-2.606;2023-01-29T07:20:36;102792.38;;;8.76;73.38
69351;BME280;57106;51.446;-2.606;2023-01-29T07:23:03;102789.87;;;8.58;74.10
69351;BME280;57106;51.446;-2.606;2023-01-29T07:25:27;102783.35;;;8.65;74.12
69351;BME280;57106;51.446;-2.606;2023-01-29T07:27:53;102779.83;;;8.69;74.24
69351;BME280;57106;51.446;-2.606;2023-01-29T07:30:20;102774.51;;;8.77;73.92
69351;BME280;57106;51.446;-2.606;2023-01-29T07:32:49;102775.80;;;8.90;73.38
69351;BME280;57106;51.446;-2.606;2023-01-29T07:35:13;102772.60;;;8.84;73.65
69351;BME280;57106;51.446;-2.606;2023-01-29T07:37:35;102772.76;;;8.97;73.38
69351;BME280;57106;51.446;-2.606;2023-01-29T07:40:01;102772.10;;;9.05;73.12
69351;BME280;57106;51.446;-2.606;2023-01-29T07:47:18;102772.99;;;9.08;73.22
69351;BME280;57106;51.446;-2.606;2023-01-29T07:49:45;102778.08;;;9.27;72.48
69351;BME280;57106;51.446;-2.606;2023-01-29T07:54:40;102780.94;;;9.28;72.41
69351;BME280;57106;51.446;-2.606;2023-01-29T07:57:01;102782.67;;;9.27;72.57
69351;BME280;57106;51.446;-2.606;2023-01-29T07:59:26;102777.47;;;9.32;72.11
69351;BME280;57106;51.446;-2.606;2023-01-29T08:01:53;102777.70;;;9.05;73.26
69351;BME280;57106;51.446;-2.606;2023-01-29T08:04:17;102775.81;;;8.87;74.07
69351;BME280;57106;51.446;-2.606;2023-01-29T08:06:42;102775.45;;;8.83;74.55
69351;BME280;57106;51.446;-2.606;2023-01-29T08:09:19;102775.63;;;8.79;75.20
69351;BME280;57106;51.446;-2.606;2023-01-29T08:11:34;102774.43;;;8.84;75.17
69351;BME280;57106;51.446;-2.606;2023-01-29T08:14:02;102773.44;;;8.89;74.81
69351;BME280;57106;51.446;-2.606;2023-01-29T08:16:30;102771.99;;;8.92;74.85
69351;BME280;57106;51.446;-2.606;2023-01-29T08:18:51;102772.53;;;8.87;75.20
69351;BME280;57106;51.446;-2.606;2023-01-29T08:21:22;102774.96;;;8.91;75.07
69351;BME280;57106;51.446;-2.606;2023-01-29T08:23:43;102775.57;;;8.81;75.29
69351;BME280;57106;51.446;-2.606;2023-01-29T08:26:11;102781.44;;;8.84;75.79
69351;BME280;57106;51.446;-2.606;2023-01-29T08:28:33;102781.27;;;8.86;75.51
69351;BME280;57106;51.446;-2.606;2023-01-29T08:33:27;102787.01;;;8.92;75.88
69351;BME280;57106;51.446;-2.606;2023-01-29T08:35:52;102785.40;;;8.83;76.06
69351;BME280;57106;51.446;-2.606;2023-01-29T08:38:20;102785.38;;;8.76;76.70
69351;BME280;57106;51.446;-2.606;2023-01-29T08:40:49;102788.10;;;8.70;76.91
69351;BME280;57106;51.446;-2.606;2023-01-29T09:00:08;102784.25;;;9.03;76.50
69351;BME280;57106;51.446;-2.606;2023-01-29T09:02:32;102783.21;;;9.00;76.58
69351;BME280;57106;51.446;-2.606;2023-01-29T09:05:01;102788.09;;;9.02;76.54
69351;BME280;57106;51.446;-2.606;2023-01-29T09:07:24;102785.17;;;9.03;76.27
69351;BME280;57106;51.446;-2.606;2023-01-29T09:09:49;102787.75;;;8.98;76.35
69351;BME280;57106;51.446;-2.606;2023-01-29T09:12:16;102789.90;;;9.19;76.17
69351;BME280;57106;51.446;-2.606;2023-01-29T09:14:41;102786.39;;;8.84;76.95
69351;BME280;57106;51.446;-2.606;2023-01-29T09:17:08;102786.96;;;8.65;77.73
69351;BME280;57106;51.446;-2.606;2023-01-29T09:19:31;102790.29;;;8.84;77.81
69351;BME280;57106;51.446;-2.606;2023-01-29T09:21:57;102791.33;;;8.55;78.49
69351;BME280;57106;51.446;-2.606;2023-01-29T09:24:23;102789.40;;;8.77;78.46
69351;BME280;57106;51.446;-2.606;2023-01-29T09:26:49;102785.08;;;8.83;78.33
69351;BME280;57106;51.446;-2.606;2023-01-29T09:31:45;102785.63;;;9.03;77.27
69351;BME280;57106;51.446;-2.606;2023-01-29T09:34:16;102782.96;;;9.00;77.41
69351;BME280;57106;51.446;-2.606;2023-01-29T09:36:31;102783.81;;;9.08;77.13
69351;BME280;57106;51.446;-2.606;2023-01-29T09:38:58;102781.89;;;8.84;78.11
69351;BME280;57106;51.446;-2.606;2023-01-29T09:41:34;102779.32;;;8.85;78.79
69351;BME280;57106;51.446;-2.606;2023-01-29T09:43:52;102780.34;;;8.92;78.37
69351;BME280;57106;51.446;-2.606;2023-01-29T09:48:40;102778.28;;;8.95;79.06
69351;BME280;57106;51.446;-2.606;2023-01-29T09:53:44;102773.53;;;9.34;77.68
69351;BME280;57106;51.446;-2.606;2023-01-29T09:56:10;102772.48;;;9.27;77.66
69351;BME280;57106;51.446;-2.606;2023-01-29T09:58:26;102775.76;;;9.52;76.73
69351;BME280;57106;51.446;-2.606;2023-01-29T10:01:25;102781.97;;;9.68;75.77
69351;BME280;57106;51.446;-2.606;2023-01-29T10:03:25;102777.24;;;9.52;76.73
69351;BME280;57106;51.446;-2.606;2023-01-29T10:05:53;102776.74;;;9.36;77.07
69351;BME280;57106;51.446;-2.606;2023-01-29T10:08:24;102772.52;;;9.25;77.68
69351;BME280;57106;51.446;-2.606;2023-01-29T10:10:40;102770.17;;;8.95;78.49
69351;BME280;57106;51.446;-2.606;2023-01-29T10:15:37;102761.72;;;9.19;78.62
69351;BME280;57106;51.446;-2.606;2023-01-29T10:17:59;102760.17;;;9.12;78.48
69351;BME280;57106;51.446;-2.606;2023-01-29T10:22:46;102758.58;;;9.33;77.97
69351;BME280;57106;51.446;-2.606;2023-01-29T10:25:08;102761.97;;;9.21;78.55
69351;BME280;57106;51.446;-2.606;2023-01-29T10:27:32;102755.35;;;9.50;77.64
69351;BME280;57106;51.446;-2.606;2023-01-29T10:29:55;102752.13;;;9.15;78.45
69351;BME280;57106;51.446;-2.606;2023-01-29T10:32:30;102753.66;;;9.31;78.07
69351;BME280;57106;51.446;-2.606;2023-01-29T11:47:34;102673.15;;;9.69;79.38
69351;BME280;57106;51.446;-2.606;2023-01-29T11:50:02;102671.97;;;9.52;80.05
69351;BME280;57106;51.446;-2.606;2023-01-29T11:52:26;102663.23;;;9.53;80.26
69351;BME280;57106;51.446;-2.606;2023-01-29T11:54:54;102658.06;;;9.60;80.16
69351;BME280;57106;51.446;-2.606;2023-01-29T11:57:27;102661.37;;;9.77;79.82
69351;BME280;57106;51.446;-2.606;2023-01-29T11:59:43;102656.96;;;9.66;79.98
69351;BME280;57106;51.446;-2.606;2023-01-29T12:02:17;102651.55;;;9.71;80.65
69351;BME280;57106;51.446;-2.606;2023-01-29T12:04:36;102644.47;;;9.58;81.24
69351;BME280;57106;51.446;-2.606;2023-01-29T12:06:58;102636.82;;;9.79;81.25
69351;BME280;57106;51.446;-2.606;2023-01-29T12:09:26;102634.33;;;9.91;80.93
69351;BME280;57106;51.446;-2.606;2023-01-29T12:11:54;102624.48;;;9.99;80.45
69351;BME280;57106;51.446;-2.606;2023-01-29T12:14:26;102620.55;;;10.01;80.31
69351;BME280;57106;51.446;-2.606;2023-01-29T12:16:46;102611.12;;;10.01;80.73
69351;BME280;57106;51.446;-2.606;2023-01-29T12:19:13;102608.09;;;9.80;81.26
69351;BME280;57106;51.446;-2.606;2023-01-29T12:21:46;102604.79;;;9.75;82.31
69351;BME280;57106;51.446;-2.606;2023-01-29T12:24:02;102603.50;;;9.81;82.52
69351;BME280;57106;51.446;-2.606;2023-01-29T12:26:32;102602.31;;;9.81;82.89
69351;BME280;57106;51.446;-2.606;2023-01-29T12:28:58;102591.12;;;9.97;82.86
69351;BME280;57106;51.446;-2.606;2023-01-29T12:31:24;102587.28;;;10.00;82.13
69351;BME280;57106;51.446;-2.606;2023-01-29T12:33:45;102583.08;;;10.14;81.79
69351;BME280;57106;51.446;-2.606;2023-01-29T12:36:11;102584.01;;;10.20;82.01
69351;BME280;57106;51.446;-2.606;2023-01-29T12:38:31;102575.31;;;10.05;81.47
69351;BME280;57106;51.446;-2.606;2023-01-29T12:40:59;102575.40;;;10.22;81.36
69351;BME280;57106;51.446;-2.606;2023-01-29T12:43:29;102566.06;;;10.23;80.92
69351;BME280;57106;51.446;-2.606;2023-01-29T12:45:51;102564.44;;;10.15;81.67
69351;BME280;57106;51.446;-2.606;2023-01-29T12:48:18;102559.68;;;10.24;81.18
69351;BME280;57106;51.446;-2.606;2023-01-29T12:50:39;102552.68;;;10.26;80.70
69351;BME280;57106;51.446;-2.606;2023-01-29T12:53:12;102560.42;;;10.34;81.00
69351;BME280;57106;51.446;-2.606;2023-01-29T12:55:41;102547.87;;;10.11;81.29
69351;BME280;57106;51.446;-2.606;2023-01-29T13:00:24;102538.51;;;10.20;81.20
69351;BME280;57106;51.446;-2.606;2023-01-29T13:02:52;102537.20;;;10.18;80.83
69351;BME280;57106;51.446;-2.606;2023-01-29T13:05:19;102535.86;;;9.95;81.33
69351;BME280;57106;51.446;-2.606;2023-01-29T13:07:45;102535.18;;;10.01;81.98
69351;BME280;57106;51.446;-2.606;2023-01-29T13:10:09;102530.87;;;9.96;82.09
69351;BME280;57106;51.446;-2.606;2023-01-29T13:12:30;102527.65;;;9.83;82.33
69351;BME280;57106;51.446;-2.606;2023-01-29T13:17:26;102513.95;;;10.02;81.91
69351;BME280;57106;51.446;-2.606;2023-01-29T13:19:50;102513.60;;;10.00;82.00
69351;BME280;57106;51.446;-2.606;2023-01-29T13:22:17;102510.57;;;9.87;82.04
69351;BME280;57106;51.446;-2.606;2023-01-29T13:24:39;102505.11;;;9.80;82.34
69351;BME280;57106;51.446;-2.606;2023-01-29T13:27:18;102506.74;;;9.77;82.92
69351;BME280;57106;51.446;-2.606;2023-01-29T13:29:29;102499.92;;;9.78;82.70
69351;BME280;57106;51.446;-2.606;2023-01-29T13:31:54;102503.89;;;9.80;82.78
69351;BME280;57106;51.446;-2.606;2023-01-29T13:34:22;102502.75;;;9.85;83.44
69351;BME280;57106;51.446;-2.606;2023-01-29T13:36:46;102494.03;;;9.84;83.17
69351;BME280;57106;51.446;-2.606;2023-01-29T13:39:17;102493.74;;;9.94;82.90
69351;BME280;57106;51.446;-2.606;2023-01-29T13:41:40;102491.50;;;9.92;83.10
69351;BME280;57106;51.446;-2.606;2023-01-29T13:44:02;102492.94;;;9.96;83.27
69351;BME280;57106;51.446;-2.606;2023-01-29T13:46:28;102489.17;;;10.15;82.32
69351;BME280;57106;51.446;-2.606;2023-01-29T13:48:58;102481.54;;;10.13;81.76
69351;BME280;57106;51.446;-2.606;2023-01-29T13:51:30;102479.31;;;10.43;81.01
69351;BME280;57106;51.446;-2.606;2023-01-29T13:53:53;102476.08;;;10.35;80.21
69351;BME280;57106;51.446;-2.606;2023-01-29T13:56:27;102464.42;;;10.18;80.10
69351;BME280;57106;51.446;-2.606;2023-01-29T13:58:54;102464.63;;;10.23;79.95
69351;BME280;57106;51.446;-2.606;2023-01-29T14:01:00;102462.42;;;10.08;80.16
69351;BME280;57106;51.446;-2.606;2023-01-29T14:05:57;102456.44;;;10.44;78.98
69351;BME280;57106;51.446;-2.606;2023-01-29T14:10:43;102453.97;;;10.35;78.23
69351;BME280;57106;51.446;-2.606;2023-01-29T14:13:26;102450.50;;;10.15;78.97
69351;BME280;57106;51.446;-2.606;2023-01-29T14:15:34;102450.34;;;10.33;78.52
69351;BME280;57106;51.446;-2.606;2023-01-29T14:20:30;102453.11;;;10.28;78.76
69351;BME280;57106;51.446;-2.606;2023-01-29T14:22:55;102460.19;;;10.44;78.23
69351;BME280;57106;51.446;-2.606;2023-01-29T14:25:26;102454.65;;;10.61;76.55
69351;BME280;57106;51.446;-2.606;2023-01-29T14:27:46;102458.82;;;10.39;76.85
69351;BME280;57106;51.446;-2.606;2023-01-29T14:30:15;102456.27;;;10.35;76.21
69351;BME280;57106;51.446;-2.606;2023-01-29T14:32:32;102454.59;;;10.16;76.50
69351;BME280;57106;51.446;-2.606;2023-01-29T14:35:00;102447.21;;;10.06;77.09
69351;BME280;57106;51.446;-2.606;2023-01-29T14:37:33;102450.47;;;10.48;76.01
69351;BME280;57106;51.446;-2.606;2023-01-29T14:39:50;102447.60;;;10.39;75.85
69351;BME280;57106;51.446;-2.606;2023-01-29T14:42:20;102441.83;;;10.12;76.45
69351;BME280;57106;51.446;-2.606;2023-01-29T14:44:47;102446.69;;;10.08;76.84
69351;BME280;57106;51.446;-2.606;2023-01-29T14:47:07;102445.34;;;10.05;76.68
69351;BME280;57106;51.446;-2.606;2023-01-29T14:49:47;102444.81;;;10.21;75.98
69351;BME280;57106;51.446;-2.606;2023-01-29T14:51:56;102441.72;;;9.82;76.65
69351;BME280;57106;51.446;-2.606;2023-01-29T14:54:29;102437.17;;;9.87;76.25
69351;BME280;57106;51.446;-2.606;2023-01-29T14:56:55;102440.70;;;10.11;75.54
69351;BME280;57106;51.446;-2.606;2023-01-29T14:59:19;102445.41;;;10.17;75.26
69351;BME280;57106;51.446;-2.606;2023-01-29T15:16:18;102440.43;;;11.03;70.22
69351;BME280;57106;51.446;-2.606;2023-01-29T15:18:41;102428.16;;;10.51;69.10
69351;BME280;57106;51.446;-2.606;2023-01-29T15:21:08;102430.60;;;10.29;68.84
69351;BME280;57106;51.446;-2.606;2023-01-29T15:23:30;102424.89;;;9.98;68.49
69351;BME280;57106;51.446;-2.606;2023-01-29T15:25:56;102416.25;;;9.78;68.07
69351;BME280;57106;51.446;-2.606;2023-01-29T15:28:19;102407.79;;;9.60;68.08
69351;BME280;57106;51.446;-2.606;2023-01-29T15:30:45;102396.27;;;9.42;66.49
69351;BME280;57106;51.446;-2.606;2023-01-29T15:33:13;102390.27;;;9.48;66.57
69351;BME280;57106;51.446;-2.606;2023-01-29T15:35:39;102390.98;;;9.52;65.80
69351;BME280;57106;51.446;-2.606;2023-01-29T15:38:03;102390.68;;;9.61;65.09
69351;BME280;57106;51.446;-2.606;2023-01-29T15:40:27;102389.92;;;9.68;65.58
69351;BME280;57106;51.446;-2.606;2023-01-29T15:42:54;102392.06;;;9.94;65.61
69351;BME280;57106;51.446;-2.606;2023-01-29T15:45:22;102385.04;;;10.30;64.91
69351;BME280;57106;51.446;-2.606;2023-01-29T15:47:44;102375.08;;;10.38;64.48
69351;BME280;57106;51.446;-2.606;2023-01-29T15:50:11;102375.34;;;10.48;65.02
69351;BME280;57106;51.446;-2.606;2023-01-29T15:52:35;102368.32;;;10.17;65.73
69351;BME280;57106;51.446;-2.606;2023-01-29T15:55:04;102364.72;;;10.31;65.64
69351;BME280;57106;51.446;-2.606;2023-01-29T15:57:32;102368.08;;;10.23;66.38
69351;BME280;57106;51.446;-2.606;2023-01-29T16:04:43;102380.80;;;10.36;67.33
69351;BME280;57106;51.446;-2.606;2023-01-29T16:07:10;102388.71;;;10.09;68.32
69351;BME280;57106;51.446;-2.606;2023-01-29T16:09:34;102388.76;;;9.98;69.49
69351;BME280;57106;51.446;-2.606;2023-01-29T16:12:00;102376.56;;;9.87;70.62
69351;BME280;57106;51.446;-2.606;2023-01-29T16:16:52;102369.45;;;9.71;71.97
69351;BME280;57106;51.446;-2.606;2023-01-29T16:19:21;102375.41;;;9.64;72.49
69351;BME280;57106;51.446;-2.606;2023-01-29T16:21:42;102364.63;;;9.37;73.05
69351;BME280;57106;51.446;-2.606;2023-01-29T16:24:10;102363.62;;;9.48;72.37
69351;BME280;57106;51.446;-2.606;2023-01-29T16:26:35;102364.75;;;9.20;73.22
69351;BME280;57106;51.446;-2.606;2023-01-29T16:29:03;102362.06;;;9.21;72.89
69351;BME280;57106;51.446;-2.606;2023-01-29T16:31:26;102362.38;;;9.26;72.67
69351;BME280;57106;51.446;-2.606;2023-01-29T16:33:49;102375.44;;;9.31;72.79
69351;BME280;57106;51.446;-2.606;2023-01-29T16:36:17;102385.04;;;9.24;72.34
69351;BME280;57106;51.446;-2.606;2023-01-29T16:38:41;102377.30;;;9.24;72.01
69351;BME280;57106;51.446;-2.606;2023-01-29T16:41:15;102374.95;;;9.15;71.77
69351;BME280;57106;51.446;-2.606;2023-01-29T16:43:48;102375.34;;;8.90;72.32
69351;BME280;57106;51.446;-2.606;2023-01-29T16:46:02;102364.79;;;8.76;72.41
69351;BME280;57106;51.446;-2.606;2023-01-29T16:48:26;102353.70;;;8.69;72.30
69351;BME280;57106;51.446;-2.606;2023-01-29T16:50:49;102355.02;;;8.72;71.68
69351;BME280;57106;51.446;-2.606;2023-01-29T16:53:18;102352.18;;;8.66;71.66
69351;BME280;57106;51.446;-2.606;2023-01-29T16:55:42;102342.23;;;8.51;71.73
69351;BME280;57106;51.446;-2.606;2023-01-29T16:58:12;102335.72;;;8.49;71.80
69351;BME280;57106;51.446;-2.606;2023-01-29T17:00:32;102334.69;;;8.47;72.04
69351;BME280;57106;51.446;-2.606;2023-01-29T17:03:01;102328.90;;;8.38;72.15
69351;BME280;57106;51.446;-2.606;2023-01-29T17:05:26;102316.73;;;8.35;71.98
69351;BME280;57106;51.446;-2.606;2023-01-29T17:07:48;102325.41;;;8.37;72.14
69351;BME280;57106;51.446;-2.606;2023-01-29T17:10:17;102337.07;;;8.42;72.07
69351;BME280;57106;51.446;-2.606;2023-01-29T17:12:40;102343.80;;;8.60;70.75
69351;BME280;57106;51.446;-2.606;2023-01-29T17:17:33;102362.48;;;8.52;71.21
69351;BME280;57106;51.446;-2.606;2023-01-29T17:19:58;102388.50;;;8.35;71.65
69351;BME280;57106;51.446;-2.606;2023-01-29T17:22:23;102387.00;;;8.46;71.47
69351;BME280;57106;51.446;-2.606;2023-01-29T17:24:48;102392.46;;;8.47;71.35
69351;BME280;57106;51.446;-2.606;2023-01-29T17:27:18;102400.49;;;8.63;70.76
69351;BME280;57106;51.446;-2.606;2023-01-29T17:29:39;102394.42;;;8.48;71.04
69351;BME280;57106;51.446;-2.606;2023-01-29T17:32:05;102380.95;;;8.60;70.74
69351;BME280;57106;51.446;-2.606;2023-01-29T17:34:30;102381.54;;;8.30;72.06
69351;BME280;57106;51.446;-2.606;2023-01-29T17:36:59;102381.74;;;8.29;72.40
69351;BME280;57106;51.446;-2.606;2023-01-29T17:41:49;102395.28;;;8.33;72.78
69351;BME280;57106;51.446;-2.606;2023-01-29T17:46:39;102365.61;;;8.39;72.57
69351;BME280;57106;51.446;-2.606;2023-01-29T17:49:12;102351.73;;;8.45;72.90